KDKK/DKK METAR and TAF weather

Enter ICAO airport designator
Station Type Date Time Source
KDKK METAR 2021/05/14 07:53 UTC NOAA

KDKK 140753Z AUTO 22003KT 10SM CLR 06/02 A3029 RMK AO2 SLP257 T00610017


Station Type Date Time Source
KDKK Decoded METAR 2021/05/14 07:53 UTC NOAA

CHAUTAUQUA COUNTY/DUNKIRK, NY, United States (KDKK) 42-30N 079-17W 202M
May 14, 2021 - 03:53 AM EDT / 2021.05.14 0753 UTC
Wind: from the SW (220 degrees) at 3 MPH (3 KT):0
Visibility: 10 mile(s):0
Sky conditions: clear
Temperature: 43.0 F (6.1 C)
Dew Point: 35.1 F (1.7 C)
Relative Humidity: 73%
Pressure (altimeter): 30.29 in. Hg (1025 hPa)
ob: KDKK 140753Z AUTO 22003KT 10SM CLR 06/02 A3029 RMK AO2 SLP257 T00610017
cycle: 8

Station Type Date Time Source
KDKK TAF UTC NOAA

Error!

Example: see airport list